createdAt,value
2023-05-06T00:00:15.554Z,17.75
2023-05-06T00:01:17.656Z,17.35
2023-05-06T00:02:19.288Z,17.78
2023-05-06T00:03:20.978Z,17.79
2023-05-06T00:04:22.700Z,17.81
2023-05-06T00:05:24.304Z,17.65
2023-05-06T00:06:26.301Z,17.78
2023-05-06T00:07:27.864Z,17.74
2023-05-06T00:08:29.436Z,17.75
2023-05-06T00:09:30.972Z,17.75
2023-05-06T00:10:32.589Z,17.76
2023-05-06T00:11:34.190Z,17.78
2023-05-06T00:12:35.994Z,17.74
2023-05-06T00:13:38.090Z,17.74
2023-05-06T00:14:39.675Z,17.73
2023-05-06T00:15:41.834Z,17.76
2023-05-06T00:16:43.640Z,17.73
2023-05-06T00:17:45.570Z,17.74
2023-05-06T00:18:47.334Z,17.66
2023-05-06T00:19:49.595Z,17.50
2023-05-06T00:20:51.842Z,17.42
2023-05-06T00:21:53.710Z,17.23
2023-05-06T00:22:58.513Z,17.43
2023-05-06T00:24:00.137Z,17.54
2023-05-06T00:25:02.432Z,17.61
2023-05-06T00:26:04.174Z,17.60
2023-05-06T00:27:09.046Z,17.59
2023-05-06T00:28:11.571Z,17.62
2023-05-06T00:29:13.255Z,17.60
2023-05-06T00:30:14.963Z,17.61
2023-05-06T00:31:16.624Z,17.61
2023-05-06T00:32:18.311Z,17.63
2023-05-06T00:33:20.529Z,17.62
2023-05-06T00:34:22.184Z,17.65
2023-05-06T00:35:23.721Z,17.68
2023-05-06T00:36:25.269Z,17.69
2023-05-06T00:37:26.771Z,17.65
2023-05-06T00:38:28.822Z,17.64
2023-05-06T00:39:30.590Z,17.64
2023-05-06T00:40:32.176Z,17.67
2023-05-06T00:41:33.872Z,17.65
2023-05-06T00:42:35.523Z,17.60
2023-05-06T00:43:37.671Z,17.62
2023-05-06T00:44:39.250Z,17.59
2023-05-06T00:45:40.888Z,17.61
2023-05-06T00:46:42.823Z,17.63
2023-05-06T00:47:44.857Z,17.65
2023-05-06T00:48:46.459Z,17.66
2023-05-06T00:49:48.043Z,17.66
2023-05-06T00:50:49.606Z,17.63
2023-05-06T00:51:52.020Z,17.58
2023-05-06T00:52:54.944Z,17.55
2023-05-06T00:53:57.214Z,17.89
2023-05-06T00:54:58.937Z,17.77
2023-05-06T00:56:00.590Z,17.69
2023-05-06T00:57:02.692Z,17.63
2023-05-06T00:58:04.576Z,17.60
2023-05-06T00:59:06.564Z,17.56
2023-05-06T01:00:08.681Z,17.55
2023-05-06T01:01:10.886Z,17.50
2023-05-06T01:02:12.476Z,17.45
2023-05-06T01:03:14.197Z,17.44
2023-05-06T01:04:15.889Z,17.32
2023-05-06T01:05:18.139Z,17.46
2023-05-06T01:06:41.507Z,17.48
2023-05-06T01:08:13.209Z,17.59
2023-05-06T01:09:17.798Z,17.54
2023-05-06T01:10:32.041Z,17.49
2023-05-06T01:11:36.464Z,17.56
2023-05-06T01:12:43.909Z,17.46
2023-05-06T01:13:48.517Z,17.48
2023-05-06T01:15:20.209Z,17.45
2023-05-06T01:16:21.921Z,17.53
2023-05-06T01:17:24.308Z,17.46
2023-05-06T01:18:26.576Z,17.44
2023-05-06T01:19:39.385Z,17.48
2023-05-06T01:20:42.001Z,17.37
2023-05-06T01:21:43.707Z,17.28
2023-05-06T01:22:45.249Z,17.31
2023-05-06T01:23:58.066Z,17.19
2023-05-06T01:25:00.126Z,17.13
2023-05-06T01:26:01.718Z,16.89
2023-05-06T01:27:03.409Z,17.07
2023-05-06T01:28:07.570Z,17.07
2023-05-06T01:29:09.543Z,16.88
2023-05-06T01:30:11.673Z,17.17
2023-05-06T01:31:14.125Z,17.10
2023-05-06T01:32:33.900Z,16.83
2023-05-06T01:33:42.500Z,17.00
2023-05-06T01:35:06.384Z,17.00
2023-05-06T01:36:18.864Z,16.98
2023-05-06T01:37:32.363Z,16.87
2023-05-06T01:38:52.192Z,17.00
2023-05-06T01:39:54.528Z,17.00
2023-05-06T01:40:56.780Z,17.03
2023-05-06T01:41:59.337Z,16.98
2023-05-06T01:43:02.342Z,16.98
2023-05-06T01:44:04.593Z,16.91
2023-05-06T01:45:06.841Z,16.97
2023-05-06T01:46:10.672Z,16.77
2023-05-06T01:47:12.242Z,16.94
2023-05-06T01:48:13.880Z,17.06
2023-05-06T01:49:16.004Z,17.08
2023-05-06T01:50:17.594Z,17.05
2023-05-06T01:51:19.131Z,17.10
2023-05-06T01:52:23.276Z,17.02
2023-05-06T01:53:24.824Z,16.97
2023-05-06T01:54:26.401Z,17.07
2023-05-06T01:55:28.319Z,17.07
2023-05-06T01:56:32.775Z,16.99
2023-05-06T01:57:34.322Z,17.10
2023-05-06T01:58:36.113Z,17.12
2023-05-06T01:59:37.660Z,17.21
2023-05-06T02:00:39.671Z,17.21
2023-05-06T02:01:41.242Z,17.26
2023-05-06T02:02:43.064Z,17.29
2023-05-06T02:03:44.823Z,17.28
2023-05-06T02:04:46.670Z,17.28
2023-05-06T02:05:48.220Z,17.31
2023-05-06T02:06:49.756Z,17.27
2023-05-06T02:07:51.797Z,17.18
2023-05-06T02:08:53.387Z,17.32
2023-05-06T02:09:54.898Z,17.28
2023-05-06T02:10:56.762Z,17.27
2023-05-06T02:11:58.300Z,17.27
2023-05-06T02:13:00.000Z,17.32
2023-05-06T02:14:02.155Z,17.13
2023-05-06T02:15:04.217Z,17.27
2023-05-06T02:16:06.017Z,17.20
2023-05-06T02:17:07.851Z,17.16
2023-05-06T02:18:09.536Z,17.18
2023-05-06T02:19:11.605Z,17.27
2023-05-06T02:20:13.197Z,17.28
2023-05-06T02:21:14.866Z,17.34
2023-05-06T02:22:16.482Z,17.34
2023-05-06T02:23:18.031Z,17.35
2023-05-06T02:24:20.072Z,17.34
2023-05-06T02:25:22.652Z,17.30
2023-05-06T02:26:24.372Z,17.38
2023-05-06T02:27:25.936Z,17.33
2023-05-06T02:28:27.485Z,17.32
2023-05-06T02:29:29.516Z,17.23
2023-05-06T02:30:31.710Z,17.23
2023-05-06T02:31:33.847Z,16.97
2023-05-06T02:32:36.253Z,17.06
2023-05-06T02:33:37.771Z,17.14
2023-05-06T02:34:39.311Z,17.21
2023-05-06T02:35:41.585Z,17.17
2023-05-06T02:36:43.215Z,17.16
2023-05-06T02:37:44.883Z,17.18
2023-05-06T02:38:46.512Z,17.32
2023-05-06T02:39:48.569Z,17.34
2023-05-06T02:40:50.273Z,17.29
2023-05-06T02:41:51.803Z,17.34
2023-05-06T02:42:53.425Z,17.40
2023-05-06T02:43:54.962Z,17.41
2023-05-06T02:44:56.979Z,17.36
2023-05-06T02:45:58.592Z,17.38
2023-05-06T02:47:00.754Z,17.29
2023-05-06T02:48:02.414Z,17.32
2023-05-06T02:49:03.980Z,17.25
2023-05-06T02:50:06.068Z,17.33
2023-05-06T02:51:07.662Z,17.39
2023-05-06T02:52:09.690Z,17.41
2023-05-06T02:53:13.343Z,17.43
2023-05-06T02:54:14.924Z,17.43
2023-05-06T02:55:16.588Z,17.34
2023-05-06T02:56:18.164Z,17.38
2023-05-06T02:57:19.795Z,17.27
2023-05-06T02:58:21.857Z,17.15
2023-05-06T02:59:23.690Z,17.08
2023-05-06T03:00:25.255Z,17.15
2023-05-06T03:01:26.983Z,17.27
2023-05-06T03:02:28.628Z,17.25
2023-05-06T03:03:30.433Z,17.18
2023-05-06T03:04:32.607Z,17.21
2023-05-06T03:05:34.272Z,17.21
2023-05-06T03:06:35.908Z,17.21
2023-05-06T03:07:39.054Z,17.32
2023-05-06T03:08:40.704Z,17.37
2023-05-06T03:09:42.693Z,17.32
2023-05-06T03:10:44.346Z,17.39
2023-05-06T03:11:46.206Z,17.36
2023-05-06T03:12:47.749Z,17.38
2023-05-06T03:13:49.408Z,17.34
2023-05-06T03:14:51.042Z,17.24
2023-05-06T03:15:54.302Z,17.33
2023-05-06T03:16:55.973Z,17.43
2023-05-06T03:17:57.633Z,17.38
2023-05-06T03:18:59.322Z,17.44
2023-05-06T03:20:00.932Z,17.41
2023-05-06T03:21:02.570Z,17.48
2023-05-06T03:22:04.200Z,17.37
2023-05-06T03:23:06.287Z,17.32
2023-05-06T03:24:08.454Z,17.30
2023-05-06T03:25:10.316Z,17.35
2023-05-06T03:26:12.234Z,17.40
2023-05-06T03:27:14.001Z,17.35
2023-05-06T03:28:15.648Z,17.27
2023-05-06T03:29:17.277Z,17.39
2023-05-06T03:30:18.885Z,17.41
2023-05-06T03:31:20.643Z,17.42
2023-05-06T03:32:22.830Z,17.24
2023-05-06T03:33:24.392Z,17.28
2023-05-06T03:34:26.219Z,17.29
2023-05-06T03:35:28.342Z,17.31
2023-05-06T03:36:31.721Z,17.36
2023-05-06T03:37:33.394Z,17.39
2023-05-06T03:38:35.408Z,17.31
2023-05-06T03:39:36.966Z,17.32
2023-05-06T03:40:38.563Z,17.39
2023-05-06T03:41:40.107Z,17.40
2023-05-06T03:42:41.635Z,17.38
2023-05-06T03:43:43.246Z,17.28
2023-05-06T03:44:44.869Z,17.25
2023-05-06T03:45:46.838Z,17.24
2023-05-06T03:46:48.443Z,17.07
2023-05-06T03:47:50.103Z,17.14
2023-05-06T03:48:51.813Z,17.19
2023-05-06T03:49:53.389Z,17.28
2023-05-06T03:50:55.270Z,17.21
2023-05-06T03:51:57.065Z,17.24
2023-05-06T03:52:58.621Z,17.28
2023-05-06T03:54:00.322Z,17.18
2023-05-06T03:55:01.896Z,17.22
2023-05-06T03:56:03.806Z,17.25
2023-05-06T03:57:05.479Z,17.36
2023-05-06T03:58:07.300Z,17.31
2023-05-06T03:59:09.056Z,17.17
2023-05-06T04:00:12.102Z,17.29
2023-05-06T04:01:14.099Z,17.30
2023-05-06T04:02:16.302Z,17.25
2023-05-06T04:03:18.071Z,17.24
2023-05-06T04:04:19.684Z,17.30
2023-05-06T04:05:21.357Z,17.20
2023-05-06T04:06:23.453Z,17.18
2023-05-06T04:07:24.993Z,17.20
2023-05-06T04:08:26.542Z,17.11
2023-05-06T04:09:28.071Z,17.04
2023-05-06T04:10:29.649Z,17.06
2023-05-06T04:11:31.617Z,17.01
2023-05-06T04:12:33.160Z,17.09
2023-05-06T04:13:34.927Z,17.03
2023-05-06T04:14:36.470Z,16.98
2023-05-06T04:15:38.642Z,17.05
2023-05-06T04:16:41.014Z,17.12
2023-05-06T04:17:42.693Z,17.08
2023-05-06T04:18:44.478Z,17.07
2023-05-06T04:19:47.274Z,17.16
2023-05-06T04:20:49.017Z,17.24
2023-05-06T04:21:51.184Z,17.22
2023-05-06T04:22:52.722Z,17.28
2023-05-06T04:23:54.735Z,17.29
2023-05-06T04:24:56.312Z,17.21
2023-05-06T04:25:58.025Z,17.32
2023-05-06T04:26:59.959Z,17.30
2023-05-06T04:28:01.769Z,17.35
2023-05-06T04:29:03.307Z,17.29
2023-05-06T04:30:05.155Z,17.36
2023-05-06T04:31:08.567Z,17.25
2023-05-06T04:32:11.833Z,17.18
2023-05-06T04:33:13.533Z,17.15
2023-05-06T04:34:16.999Z,17.28
2023-05-06T04:35:18.527Z,17.29
2023-05-06T04:36:20.492Z,17.33
2023-05-06T04:37:22.160Z,17.35
2023-05-06T04:38:25.810Z,17.30
2023-05-06T04:39:27.470Z,17.35
2023-05-06T04:40:29.804Z,17.39
2023-05-06T04:41:31.751Z,17.41
2023-05-06T04:42:33.861Z,17.42
2023-05-06T04:43:35.786Z,17.42
2023-05-06T04:44:40.113Z,17.41
2023-05-06T04:45:49.650Z,17.28
2023-05-06T04:46:51.485Z,17.26
2023-05-06T04:47:53.202Z,17.25
2023-05-06T04:48:55.229Z,17.21
2023-05-06T04:49:57.395Z,17.23
2023-05-06T04:50:58.977Z,17.21
2023-05-06T04:52:00.740Z,17.19
2023-05-06T04:53:02.270Z,17.22
2023-05-06T04:54:03.886Z,17.28
2023-05-06T04:55:05.935Z,17.17
2023-05-06T04:56:08.010Z,17.22
2023-05-06T04:57:09.578Z,17.04
2023-05-06T04:58:13.033Z,17.04
2023-05-06T04:59:14.608Z,17.11
2023-05-06T05:00:16.557Z,17.12
2023-05-06T05:01:19.389Z,17.18
2023-05-06T05:02:20.898Z,17.60
2023-05-06T05:03:22.609Z,17.47
2023-05-06T05:04:24.229Z,17.41
2023-05-06T05:05:26.927Z,17.37
2023-05-06T05:06:28.454Z,17.37
2023-05-06T05:07:30.014Z,17.31
2023-05-06T05:08:31.536Z,17.25
2023-05-06T05:09:34.021Z,17.24
2023-05-06T05:10:35.562Z,17.39
2023-05-06T05:11:38.231Z,17.41
2023-05-06T05:12:39.844Z,17.53
2023-05-06T05:13:41.473Z,17.38
2023-05-06T05:14:43.026Z,17.52
2023-05-06T05:15:44.609Z,17.56
2023-05-06T05:16:46.213Z,17.65
2023-05-06T05:17:48.061Z,17.73
2023-05-06T05:18:49.709Z,17.69
2023-05-06T05:19:52.824Z,17.71
2023-05-06T05:20:57.016Z,17.75
2023-05-06T05:21:58.877Z,17.76
2023-05-06T05:23:00.626Z,17.80
2023-05-06T05:24:02.171Z,17.85
2023-05-06T05:25:08.476Z,17.87
2023-05-06T05:26:10.255Z,17.92
2023-05-06T05:27:12.450Z,17.91
2023-05-06T05:28:14.092Z,17.89
2023-05-06T05:29:15.657Z,17.89
2023-05-06T05:30:17.369Z,17.88
2023-05-06T05:31:18.988Z,17.96
2023-05-06T05:32:22.180Z,17.96
2023-05-06T05:33:23.851Z,17.98
2023-05-06T05:34:25.492Z,17.91
2023-05-06T05:35:27.065Z,18.03
2023-05-06T05:36:28.610Z,18.05
2023-05-06T05:37:30.535Z,18.05
2023-05-06T05:38:32.334Z,18.07
2023-05-06T05:39:33.954Z,18.04
2023-05-06T05:40:38.572Z,18.05
2023-05-06T05:41:40.159Z,17.95
2023-05-06T05:42:42.063Z,17.99
2023-05-06T05:43:43.621Z,17.98
2023-05-06T05:44:45.148Z,18.11
2023-05-06T05:45:46.721Z,18.08
2023-05-06T05:46:48.856Z,18.10
2023-05-06T05:47:50.490Z,18.12
2023-05-06T05:48:52.013Z,18.12
2023-05-06T05:49:54.258Z,18.14
2023-05-06T05:50:55.805Z,17.87
2023-05-06T05:51:57.671Z,17.73
2023-05-06T05:52:59.233Z,17.64
2023-05-06T05:54:00.831Z,17.66
2023-05-06T05:55:02.457Z,17.74
2023-05-06T05:56:04.058Z,17.88
2023-05-06T05:57:06.153Z,17.98
2023-05-06T05:58:07.752Z,17.94
2023-05-06T05:59:09.287Z,18.10
2023-05-06T06:00:13.352Z,18.26
2023-05-06T06:01:15.270Z,18.35
2023-05-06T06:02:17.327Z,18.39
2023-05-06T06:03:19.265Z,18.43
2023-05-06T06:04:21.227Z,18.44
2023-05-06T06:05:22.783Z,18.47
2023-05-06T06:06:24.560Z,18.45
2023-05-06T06:07:26.178Z,18.44
2023-05-06T06:08:29.824Z,18.46
2023-05-06T06:09:31.536Z,18.47
2023-05-06T06:10:33.116Z,18.46
2023-05-06T06:11:34.785Z,18.42
2023-05-06T06:12:36.519Z,18.42
2023-05-06T06:13:38.115Z,18.42
2023-05-06T06:14:40.303Z,18.45
2023-05-06T06:15:41.869Z,18.40
2023-05-06T06:16:43.550Z,18.44
2023-05-06T06:17:45.379Z,18.38
2023-05-06T06:18:47.172Z,18.35
2023-05-06T06:19:48.709Z,18.40
2023-05-06T06:20:53.109Z,18.28
2023-05-06T06:21:55.146Z,18.43
2023-05-06T06:22:56.766Z,18.36
2023-05-06T06:23:58.358Z,18.44
2023-05-06T06:24:59.906Z,18.40
2023-05-06T06:26:03.277Z,18.40
2023-05-06T06:27:04.782Z,18.36
2023-05-06T06:28:06.490Z,18.36
2023-05-06T06:29:08.546Z,18.32
2023-05-06T06:30:16.892Z,18.39
2023-05-06T06:31:18.778Z,18.39
2023-05-06T06:32:20.395Z,18.24
2023-05-06T06:33:21.954Z,18.33
2023-05-06T06:34:24.395Z,18.33
2023-05-06T06:35:26.956Z,18.39
2023-05-06T06:36:28.975Z,18.34
2023-05-06T06:37:30.732Z,18.31
2023-05-06T06:38:32.614Z,18.05
2023-05-06T06:39:34.523Z,18.42
2023-05-06T06:40:36.075Z,18.40
2023-05-06T06:41:37.700Z,18.34
2023-05-06T06:42:39.381Z,18.04
2023-05-06T06:43:41.125Z,18.39
2023-05-06T06:44:42.759Z,18.42
2023-05-06T06:45:47.489Z,18.15
2023-05-06T06:46:49.080Z,18.31
2023-05-06T06:47:50.863Z,18.32
2023-05-06T06:48:52.432Z,18.31
2023-05-06T06:49:53.958Z,18.32
2023-05-06T06:50:55.582Z,18.38
2023-05-06T06:51:57.601Z,18.39
2023-05-06T06:52:59.148Z,18.40
2023-05-06T06:54:00.742Z,18.20
2023-05-06T06:55:02.516Z,18.25
2023-05-06T06:56:04.100Z,18.26
2023-05-06T06:57:06.897Z,18.27
2023-05-06T06:58:08.710Z,18.38
2023-05-06T06:59:10.402Z,18.38
2023-05-06T07:00:12.488Z,18.35
2023-05-06T07:01:14.169Z,18.36
2023-05-06T07:02:15.827Z,18.35
2023-05-06T07:03:19.519Z,18.39
2023-05-06T07:04:21.657Z,18.40
2023-05-06T07:05:31.873Z,18.38
2023-05-06T07:06:33.434Z,18.58
2023-05-06T07:07:35.012Z,18.56
2023-05-06T07:08:36.692Z,18.52
2023-05-06T07:09:40.288Z,18.53
2023-05-06T07:10:42.617Z,18.52
2023-05-06T07:11:44.198Z,18.61
2023-05-06T07:12:45.762Z,18.55
2023-05-06T07:13:47.325Z,18.42
2023-05-06T07:14:48.916Z,18.35
2023-05-06T07:15:50.521Z,18.28
2023-05-06T07:16:52.204Z,18.34
2023-05-06T07:17:54.156Z,18.33
2023-05-06T07:18:55.952Z,18.34
2023-05-06T07:19:57.487Z,18.36
2023-05-06T07:20:59.010Z,18.41
2023-05-06T07:22:00.740Z,18.44
2023-05-06T07:23:02.291Z,18.45
2023-05-06T07:24:03.820Z,18.46
2023-05-06T07:25:05.946Z,18.55
2023-05-06T07:26:07.537Z,18.57
2023-05-06T07:27:09.128Z,18.56
2023-05-06T07:28:10.720Z,18.59
2023-05-06T07:29:12.269Z,18.62
2023-05-06T07:30:13.867Z,18.63
2023-05-06T07:31:16.410Z,18.68
2023-05-06T07:32:18.011Z,18.67
2023-05-06T07:33:19.509Z,18.69
2023-05-06T07:34:21.076Z,18.68
2023-05-06T07:35:22.595Z,18.67
2023-05-06T07:36:24.496Z,18.73
2023-05-06T07:37:26.045Z,18.74
2023-05-06T07:38:27.565Z,18.78
2023-05-06T07:39:29.124Z,18.79
2023-05-06T07:40:30.796Z,18.79
2023-05-06T07:41:32.352Z,18.79
2023-05-06T07:42:33.865Z,18.82
2023-05-06T07:43:35.403Z,18.74
2023-05-06T07:44:37.067Z,18.84
2023-05-06T07:45:38.688Z,18.84
2023-05-06T07:46:40.455Z,18.89
2023-05-06T07:47:42.131Z,18.97
2023-05-06T07:48:43.803Z,18.95
2023-05-06T07:49:45.792Z,19.06
2023-05-06T07:50:47.308Z,19.10
2023-05-06T07:51:49.225Z,19.07
2023-05-06T07:52:50.794Z,19.04
2023-05-06T07:53:52.343Z,19.08
2023-05-06T07:54:53.880Z,19.12
2023-05-06T07:55:58.541Z,19.13
2023-05-06T07:57:00.565Z,19.15
2023-05-06T07:58:02.090Z,19.18
2023-05-06T07:59:03.695Z,19.20
2023-05-06T08:00:06.120Z,19.17
2023-05-06T08:01:07.689Z,19.13
2023-05-06T08:02:09.327Z,19.21
2023-05-06T08:03:10.950Z,19.27
2023-05-06T08:04:12.658Z,19.21
2023-05-06T08:05:14.624Z,19.29
2023-05-06T08:06:16.251Z,19.34
2023-05-06T08:07:17.791Z,19.35
2023-05-06T08:08:19.769Z,19.42
2023-05-06T08:09:23.100Z,19.47
2023-05-06T08:10:24.961Z,19.56
2023-05-06T08:11:26.862Z,19.53
2023-05-06T08:12:28.392Z,19.60
2023-05-06T08:13:30.554Z,19.61
2023-05-06T08:14:32.056Z,19.62
2023-05-06T08:15:33.644Z,19.66
2023-05-06T08:16:36.108Z,19.67
2023-05-06T08:17:37.709Z,19.65
2023-05-06T08:18:39.378Z,19.75
2023-05-06T08:19:40.885Z,19.68
2023-05-06T08:20:42.442Z,19.63
2023-05-06T08:21:43.978Z,19.82
2023-05-06T08:22:45.815Z,20.03
2023-05-06T08:23:47.372Z,20.28
2023-05-06T08:24:48.888Z,20.51
2023-05-06T08:25:50.497Z,20.68
2023-05-06T08:26:52.182Z,20.62
2023-05-06T08:27:53.892Z,20.84
2023-05-06T08:28:57.278Z,20.90
2023-05-06T08:29:58.815Z,20.81
2023-05-06T08:31:01.596Z,20.76
2023-05-06T08:32:03.233Z,20.87
2023-05-06T08:33:05.384Z,20.81
2023-05-06T08:34:07.258Z,20.65
2023-05-06T08:35:09.315Z,20.64
2023-05-06T08:36:11.689Z,20.71
2023-05-06T08:37:13.274Z,20.32
2023-05-06T08:38:14.782Z,20.73
2023-05-06T08:39:16.427Z,20.76
2023-05-06T08:40:22.486Z,20.68
2023-05-06T08:41:24.092Z,20.58
2023-05-06T08:42:25.811Z,20.61
2023-05-06T08:43:27.668Z,20.61
2023-05-06T08:44:29.490Z,20.62
2023-05-06T08:45:31.802Z,20.66
2023-05-06T08:46:33.582Z,20.78
2023-05-06T08:47:35.718Z,20.86
2023-05-06T08:48:37.810Z,21.04
2023-05-06T08:49:39.365Z,21.18
2023-05-06T08:50:42.379Z,21.31
2023-05-06T08:51:44.417Z,21.45
2023-05-06T08:52:46.037Z,21.61
2023-05-06T08:53:48.428Z,21.63
2023-05-06T08:54:51.434Z,21.58
2023-05-06T08:55:53.216Z,21.72
2023-05-06T08:56:56.336Z,21.76
2023-05-06T08:57:58.027Z,21.60
2023-05-06T08:58:59.710Z,21.58
2023-05-06T09:00:01.444Z,21.39
2023-05-06T09:01:03.270Z,21.50
2023-05-06T09:02:05.204Z,21.56
2023-05-06T09:03:06.997Z,21.65
2023-05-06T09:04:09.441Z,21.68
2023-05-06T09:05:12.455Z,21.64
2023-05-06T09:06:14.127Z,21.55
2023-05-06T09:07:15.670Z,21.63
2023-05-06T09:08:17.284Z,21.68
2023-05-06T09:09:18.846Z,21.73
2023-05-06T09:10:20.648Z,21.78
2023-05-06T09:11:26.755Z,21.87
2023-05-06T09:12:28.384Z,21.94
2023-05-06T09:13:30.259Z,22.01
2023-05-06T09:14:31.817Z,21.97
2023-05-06T09:15:42.944Z,22.05
2023-05-06T09:16:49.565Z,22.11
2023-05-06T09:17:51.284Z,22.18
2023-05-06T09:18:52.895Z,22.21
2023-05-06T09:19:56.898Z,22.23
2023-05-06T09:21:00.644Z,22.28
2023-05-06T09:22:02.474Z,22.28
2023-05-06T09:23:04.170Z,22.28
2023-05-06T09:24:06.672Z,22.26
2023-05-06T09:25:08.621Z,22.09
2023-05-06T09:26:10.362Z,21.99
2023-05-06T09:27:13.837Z,21.76
2023-05-06T09:28:16.806Z,21.40
2023-05-06T09:29:18.383Z,21.16
2023-05-06T09:30:20.207Z,21.09
2023-05-06T09:31:21.851Z,21.03
2023-05-06T09:32:24.010Z,21.05
2023-05-06T09:33:25.676Z,21.15
2023-05-06T09:34:27.204Z,21.21
2023-05-06T09:35:29.188Z,21.28
2023-05-06T09:36:30.783Z,21.36
2023-05-06T09:37:32.363Z,21.49
2023-05-06T09:38:33.926Z,21.60
2023-05-06T09:39:35.619Z,21.66
2023-05-06T09:40:37.512Z,21.69
2023-05-06T09:41:39.125Z,21.38
2023-05-06T09:42:40.890Z,20.78
2023-05-06T09:43:48.154Z,21.16
2023-05-06T09:44:51.417Z,21.14
2023-05-06T09:45:53.048Z,21.22
2023-05-06T09:46:54.604Z,21.37
2023-05-06T09:47:56.232Z,21.43
2023-05-06T09:48:58.254Z,21.41
2023-05-06T09:50:01.090Z,21.36
2023-05-06T09:51:02.703Z,21.70
2023-05-06T09:52:04.588Z,21.58
2023-05-06T09:53:06.454Z,21.47
2023-05-06T09:54:08.076Z,21.30
2023-05-06T09:55:10.358Z,21.53
2023-05-06T09:56:12.123Z,21.67
2023-05-06T09:57:14.121Z,21.55
2023-05-06T09:58:16.520Z,21.70
2023-05-06T09:59:18.659Z,21.72
2023-05-06T10:00:26.816Z,21.80
2023-05-06T10:01:36.114Z,21.90
2023-05-06T10:02:42.564Z,21.73
2023-05-06T10:03:44.416Z,21.62
2023-05-06T10:04:46.601Z,21.63
2023-05-06T10:05:48.403Z,21.72
2023-05-06T10:06:54.991Z,21.81
2023-05-06T10:07:57.350Z,21.90
2023-05-06T10:08:58.951Z,21.98
2023-05-06T10:10:00.876Z,21.97
2023-05-06T10:11:02.427Z,22.08
2023-05-06T10:12:04.219Z,22.22
2023-05-06T10:13:06.206Z,22.46
2023-05-06T10:14:07.821Z,22.57
2023-05-06T10:15:10.111Z,22.66
2023-05-06T10:16:12.821Z,22.75
2023-05-06T10:17:16.424Z,22.80
2023-05-06T10:18:19.703Z,22.90
2023-05-06T10:19:23.798Z,23.01
2023-05-06T10:20:25.502Z,23.11
2023-05-06T10:21:28.161Z,23.17
2023-05-06T10:22:41.646Z,23.11
2023-05-06T10:23:52.103Z,22.94
2023-05-06T10:24:59.436Z,22.98
2023-05-06T10:26:06.355Z,23.14
2023-05-06T10:27:07.911Z,23.31
2023-05-06T10:28:12.756Z,23.38
2023-05-06T10:29:20.889Z,23.38
2023-05-06T10:30:22.779Z,23.37
2023-05-06T10:31:24.513Z,23.36
2023-05-06T10:32:27.286Z,23.34
2023-05-06T10:33:29.566Z,23.35
2023-05-06T10:34:33.515Z,23.33
2023-05-06T10:35:41.564Z,23.40
2023-05-06T10:36:43.401Z,23.44
2023-05-06T10:37:46.334Z,23.06
2023-05-06T10:38:55.072Z,23.31
2023-05-06T10:39:56.672Z,23.26
2023-05-06T10:40:58.706Z,23.27
2023-05-06T10:42:01.875Z,23.31
2023-05-06T10:43:26.309Z,23.47
2023-05-06T10:45:01.115Z,23.70
2023-05-06T10:46:09.272Z,23.80
2023-05-06T10:47:11.011Z,23.69
2023-05-06T10:48:12.875Z,23.62
2023-05-06T10:49:14.607Z,23.51
2023-05-06T10:50:22.825Z,23.48
2023-05-06T10:51:24.970Z,23.70
2023-05-06T10:52:26.750Z,23.84
2023-05-06T10:53:56.317Z,23.89
2023-05-06T10:54:58.075Z,24.00
2023-05-06T10:56:12.115Z,24.02
2023-05-06T10:57:13.700Z,24.04
2023-05-06T10:58:17.066Z,23.98
2023-05-06T10:59:24.381Z,23.84
2023-05-06T11:00:26.127Z,23.84
2023-05-06T11:01:28.260Z,23.78
2023-05-06T11:02:30.067Z,23.82
2023-05-06T11:03:32.751Z,23.84
2023-05-06T11:04:34.762Z,23.74
2023-05-06T11:05:52.021Z,23.84
2023-05-06T11:06:53.585Z,23.95
2023-05-06T11:08:08.862Z,23.83
2023-05-06T11:09:23.718Z,23.87
2023-05-06T11:10:33.025Z,23.88
2023-05-06T11:11:47.300Z,23.87
2023-05-06T11:12:50.528Z,23.80
2023-05-06T11:13:53.023Z,23.33
2023-05-06T11:14:54.581Z,23.49
2023-05-06T11:15:57.095Z,22.71
2023-05-06T11:16:59.560Z,22.43
2023-05-06T11:18:02.302Z,22.84
2023-05-06T11:19:03.972Z,23.09
2023-05-06T11:20:28.801Z,23.45
2023-05-06T11:21:33.080Z,23.54
2023-05-06T11:22:41.145Z,23.59
2023-05-06T11:23:43.712Z,23.63
2023-05-06T11:24:45.393Z,23.60
2023-05-06T11:25:47.719Z,23.59
2023-05-06T11:26:49.427Z,23.63
2023-05-06T11:27:51.205Z,23.64
2023-05-06T11:28:52.749Z,23.76
2023-05-06T11:29:54.285Z,23.78
2023-05-06T11:30:56.053Z,23.85
2023-05-06T11:31:58.190Z,23.85
2023-05-06T11:33:00.253Z,23.83
2023-05-06T11:34:02.170Z,23.90
2023-05-06T11:35:03.790Z,23.95
2023-05-06T11:36:06.573Z,23.89
2023-05-06T11:37:09.523Z,23.99
2023-05-06T11:38:11.156Z,23.99
2023-05-06T11:39:13.264Z,24.09
2023-05-06T11:40:15.903Z,24.03
2023-05-06T11:41:17.588Z,24.08
2023-05-06T11:42:28.888Z,24.06
2023-05-06T11:43:30.452Z,24.11
2023-05-06T11:44:33.602Z,24.15
2023-05-06T11:45:45.065Z,24.06
2023-05-06T11:46:47.181Z,24.18
2023-05-06T11:47:49.073Z,24.22
2023-05-06T11:48:51.225Z,24.19
2023-05-06T11:49:56.169Z,23.77
2023-05-06T11:50:57.756Z,23.61
2023-05-06T11:51:59.370Z,23.58
2023-05-06T11:53:01.099Z,23.85
2023-05-06T11:54:07.489Z,23.87
2023-05-06T11:55:10.067Z,23.32
2023-05-06T11:56:11.940Z,23.21
2023-05-06T11:57:13.516Z,23.65
2023-05-06T11:58:17.078Z,23.72
2023-05-06T11:59:28.249Z,23.88
2023-05-06T12:00:29.805Z,23.96
2023-05-06T12:01:31.361Z,24.18
2023-05-06T12:02:33.073Z,24.36
2023-05-06T12:03:35.177Z,24.54
2023-05-06T12:04:46.895Z,24.64
2023-05-06T12:05:49.722Z,24.65
2023-05-06T12:06:51.388Z,24.57
2023-05-06T12:07:53.006Z,24.60
2023-05-06T12:08:54.579Z,24.79
2023-05-06T12:09:56.265Z,24.98
2023-05-06T12:11:08.179Z,25.11
2023-05-06T12:12:10.334Z,25.40
2023-05-06T12:13:12.031Z,25.51
2023-05-06T12:14:14.097Z,25.58
2023-05-06T12:15:15.705Z,25.74
2023-05-06T12:16:17.262Z,25.81
2023-05-06T12:17:18.869Z,25.80
2023-05-06T12:18:21.152Z,25.89
2023-05-06T12:19:22.711Z,25.99
2023-05-06T12:20:24.237Z,26.05
2023-05-06T12:21:26.825Z,26.05
2023-05-06T12:22:28.343Z,26.15
2023-05-06T12:23:30.304Z,26.23
2023-05-06T12:24:32.203Z,26.19
2023-05-06T12:25:33.770Z,26.22
2023-05-06T12:26:48.149Z,26.23
2023-05-06T12:27:49.775Z,26.33
2023-05-06T12:29:05.050Z,26.37
2023-05-06T12:30:09.356Z,26.38
2023-05-06T12:31:23.557Z,26.37
2023-05-06T12:32:27.007Z,26.19
2023-05-06T12:33:30.003Z,26.22
2023-05-06T12:34:36.712Z,26.34
2023-05-06T12:35:38.874Z,26.50
2023-05-06T12:36:41.763Z,26.59
2023-05-06T12:37:43.406Z,26.66
2023-05-06T12:39:01.356Z,26.85
2023-05-06T12:40:02.968Z,27.03
2023-05-06T12:41:04.632Z,27.06
2023-05-06T12:42:06.486Z,27.02
2023-05-06T12:43:08.842Z,26.96
2023-05-06T12:44:32.668Z,26.98
2023-05-06T12:45:34.319Z,26.97
2023-05-06T12:46:35.885Z,27.01
2023-05-06T12:47:37.532Z,27.12
2023-05-06T12:48:39.394Z,27.21
2023-05-06T12:50:01.025Z,27.11
2023-05-06T12:51:17.498Z,26.97
2023-05-06T12:52:20.146Z,26.70
2023-05-06T12:53:35.089Z,26.42
2023-05-06T12:54:37.402Z,26.71
2023-05-06T12:55:39.628Z,26.58
2023-05-06T12:56:41.146Z,26.51
2023-05-06T12:57:42.681Z,26.67
2023-05-06T12:58:44.592Z,26.85
2023-05-06T12:59:46.244Z,27.02
2023-05-06T13:00:47.908Z,27.13
2023-05-06T13:01:49.869Z,27.19
2023-05-06T13:02:51.432Z,27.27
2023-05-06T13:03:55.686Z,27.23
2023-05-06T13:04:57.742Z,27.18
2023-05-06T13:05:59.404Z,27.17
2023-05-06T13:07:01.249Z,27.15
2023-05-06T13:08:04.482Z,27.09
2023-05-06T13:09:06.564Z,27.24
2023-05-06T13:10:10.397Z,27.39
2023-05-06T13:11:12.714Z,27.46
2023-05-06T13:12:14.254Z,27.56
2023-05-06T13:13:16.974Z,27.28
2023-05-06T13:14:18.854Z,27.64
2023-05-06T13:15:20.609Z,27.62
2023-05-06T13:16:22.187Z,27.69
2023-05-06T13:17:23.819Z,27.71
2023-05-06T13:18:25.375Z,27.78
2023-05-06T13:20:33.044Z,27.86
2023-05-06T13:21:34.672Z,28.00
2023-05-06T13:22:50.717Z,27.89
2023-05-06T13:23:56.309Z,27.75
2023-05-06T13:24:57.975Z,27.38
2023-05-06T13:26:05.142Z,27.72
2023-05-06T13:27:07.234Z,27.93
2023-05-06T13:28:09.532Z,28.00
2023-05-06T13:29:11.633Z,27.93
2023-05-06T13:30:13.572Z,27.92
2023-05-06T13:31:15.355Z,28.03